Date,TemperatureHighF,TemperatureAvgF,TemperatureLowF,DewpointHighF,DewpointAvgF,DewpointLowF,HumidityHigh,HumidityAvg,HumidityLow,PressureMaxIn,PressureMinIn,WindSpeedMaxMPH,WindSpeedAvgMPH,GustSpeedMaxMPH,PrecipitationSumIn
2013-4-1,55.2,46.8,37.8,45.2,38.0,11.8,97,74,32,29.85,29.62,27,11,34,0.21
2013-4-2,48.9,38.9,31.6,17.6,9.3,1.6,48,30,19,30.03,29.85,20,7,25,0.00
2013-4-3,48.4,37.5,31.8,11.4,8.4,4.7,41,30,20,30.10,30.03,18,7,19,0.00
2013-4-5,59.4,49.6,42.1,40.5,30.9,12.2,84,52,20,29.93,29.69,22,6,24,0.00
2013-4-6,55.0,42.6,36.3,28.0,16.4,4.5,63,37,18,30.38,29.92,21,8,24,0.00
2013-4-7,50.5,43.9,35.2,41.6,33.6,23.5,84,68,43,30.38,30.08,22,8,25,0.00
2013-4-8,61.7,51.3,44.4,45.9,41.2,38.3,90,70,42,30.14,30.03,20,7,22,0.00
2013-4-9,81.1,56.5,44.6,48.0,43.0,35.3,95,68,21,30.13,29.90,16,8,17,0.01
2013-4-10,68.9,51.3,43.3,49.1,45.5,42.8,98,82,48,30.07,29.89,14,6,19,0.24
2013-4-11,55.4,48.4,43.2,50.5,43.2,34.8,99,83,63,30.15,29.84,11,5,12,0.04
2013-4-12,45.7,42.4,39.2,40.7,36.6,29.7,99,82,56,30.17,29.75,24,9,27,1.04
2013-4-13,59.0,46.3,39.6,42.0,38.5,34.6,99,76,47,29.99,29.72,17,6,21,0.04
2013-4-14,60.6,51.9,43.7,42.7,34.7,26.1,93,57,28,30.05,29.98,15,9,18,0.00
2013-4-15,56.1,56.1,56.1,26.7,26.7,26.7,32,32,32,30.05,30.05,14,14,18,0.00
2013-4-16,56.1,56.1,56.1,26.7,26.7,26.7,32,32,32,30.05,30.05,14,14,18,0.00
2013-4-17,56.1,56.1,56.1,26.7,26.7,26.7,32,32,32,30.05,30.05,14,14,18,0.00
2013-4-18,56.1,56.1,56.1,26.7,26.7,26.7,32,32,32,30.05,30.05,14,14,18,0.00
2013-4-19,56.1,56.1,56.1,26.7,26.7,26.7,32,32,32,30.05,30.05,14,14,18,0.00
2013-4-20,56.1,56.1,56.1,26.7,26.7,26.7,32,32,32,30.05,30.05,14,14,18,0.00
2013-4-21,56.1,56.1,56.1,26.7,26.7,26.7,32,32,32,30.05,30.05,14,14,18,0.00
2013-4-22,56.1,56.1,56.1,26.7,26.7,26.7,32,32,32,30.05,30.05,14,14,18,0.00
2013-4-23,56.1,56.1,56.1,26.7,26.7,26.7,32,32,32,30.05,30.05,14,14,18,0.00
2013-4-24,62.6,54.2,46.9,47.4,37.5,26.7,99,59,32,30.05,29.93,24,14,28,0.67
2013-4-25,67.6,53.6,47.3,50.6,41.3,28.5,99,68,23,30.29,29.94,15,6,22,0.01
2013-4-26,61.2,52.7,45.7,46.5,38.7,26.3,94,61,40,30.43,29.88,9,4,11,4.96
2013-4-27,53.4,45.7,42.8,50.3,44.5,42.3,99,96,80,29.95,29.93,5,2,5,0.00